createdAt,value
2022-08-19T05:29:42.023Z,100438.53
2022-08-19T05:34:44.617Z,100428.19
2022-08-19T05:39:51.286Z,100423.88
2022-08-19T05:44:54.523Z,100439.63
2022-08-19T05:49:56.912Z,100437.16
2022-08-19T05:54:59.305Z,100438.22
2022-08-19T06:00:03.132Z,100435.84
2022-08-19T06:05:25.380Z,100439.53
2022-08-19T06:10:27.915Z,100448.47
2022-08-19T06:15:30.279Z,100439.84
2022-08-19T06:20:54.396Z,100438.19
2022-08-19T06:25:55.993Z,100436.38
2022-08-19T06:30:58.344Z,100442.56
2022-08-19T06:36:00.730Z,100437.25
2022-08-19T06:41:07.612Z,100441.47
2022-08-19T06:46:17.629Z,100450.91
2022-08-19T06:51:20.618Z,100457.88
2022-08-19T06:56:32.004Z,100456.13
2022-08-19T07:01:39.708Z,100443.06
2022-08-19T07:06:43.954Z,100433.53
2022-08-19T07:11:52.055Z,100432.69
2022-08-19T07:16:57.101Z,100454.41
2022-08-19T07:22:02.052Z,100462.22
2022-08-19T07:27:08.481Z,100470.06
2022-08-19T07:32:17.516Z,100470.94
2022-08-19T07:37:19.901Z,100479.69
2022-08-19T07:42:22.267Z,100485.75
2022-08-19T07:47:48.840Z,100502.16
2022-08-19T07:52:48.900Z,100503.84
2022-08-19T07:57:53.150Z,100497.88
2022-08-19T08:02:56.141Z,100492.78
2022-08-19T08:08:17.462Z,100483.41
2022-08-19T08:13:19.844Z,100502.75
2022-08-19T08:18:22.427Z,100508.88
2022-08-19T08:23:31.204Z,100525.47
2022-08-19T08:28:33.690Z,100520.25
2022-08-19T08:33:36.092Z,100527.22
2022-08-19T08:38:40.239Z,100516.72
2022-08-19T08:43:47.540Z,100510.63
2022-08-19T08:48:55.719Z,100510.63
2022-08-19T08:53:58.336Z,100515.84
2022-08-19T08:59:11.137Z,100517.59
2022-08-19T09:04:14.382Z,100521.09
2022-08-19T09:09:35.797Z,100515.66
2022-08-19T09:14:50.818Z,100512.41
2022-08-19T09:20:19.542Z,100504.63
2022-08-19T09:25:24.740Z,100515.13
2022-08-19T09:30:33.223Z,100524.63
2022-08-19T09:35:49.798Z,100526.28
2022-08-19T09:40:55.809Z,100517.91
2022-08-19T09:45:58.935Z,100515.28
2022-08-19T09:51:07.669Z,100515.63
2022-08-19T09:56:14.847Z,100519.72
2022-08-19T10:01:24.015Z,100520.19
2022-08-19T10:06:46.282Z,100522.06
2022-08-19T10:11:54.484Z,100525.66
2022-08-19T10:16:57.620Z,100535.56
2022-08-19T10:22:04.541Z,100528.56
2022-08-19T10:27:07.130Z,100525.16
2022-08-19T10:32:11.505Z,100519.84
2022-08-19T10:37:23.625Z,100523.84
2022-08-19T10:42:26.440Z,100515.53
2022-08-19T10:47:31.560Z,100518.19
2022-08-19T10:52:34.747Z,100508.94
2022-08-19T10:58:01.341Z,100494.88
2022-08-19T11:03:04.509Z,100507.69
2022-08-19T11:08:21.221Z,100499.06
2022-08-19T11:13:26.079Z,100488.47
2022-08-19T11:18:28.751Z,100499.69
2022-08-19T11:23:31.118Z,100516.63
2022-08-19T11:28:33.636Z,100518.78
2022-08-19T11:33:36.056Z,100513.91
2022-08-19T11:38:38.514Z,100506.91
2022-08-19T11:43:40.959Z,100519.84
2022-08-19T11:48:44.285Z,100518.75
2022-08-19T11:53:47.300Z,100524.72
2022-08-19T11:58:50.052Z,100531.25
2022-08-19T12:03:54.528Z,100534.50
2022-08-19T12:08:59.627Z,100541.25
2022-08-19T12:14:03.833Z,100537.31
2022-08-19T12:19:06.426Z,100537.88
2022-08-19T12:24:08.827Z,100543.88
2022-08-19T12:29:11.160Z,100539.25
2022-08-19T12:34:13.497Z,100548.59
2022-08-19T12:39:15.878Z,100536.31
2022-08-19T12:44:19.282Z,100535.06
2022-08-19T12:49:52.256Z,100541.31
2022-08-19T12:54:44.652Z,100543.31
2022-08-19T12:59:47.065Z,100557.72
2022-08-19T13:04:49.526Z,100540.31
2022-08-19T13:09:53.511Z,100538.03
2022-08-19T13:14:56.751Z,100544.94
2022-08-19T13:19:59.807Z,100540.22
2022-08-19T13:25:02.168Z,100539.56
2022-08-19T13:30:24.512Z,100537.72
2022-08-19T13:35:26.942Z,100535.09
2022-08-19T13:40:34.711Z,100525.09
2022-08-19T13:45:38.987Z,100530.91
2022-08-19T13:50:45.634Z,100528.88
2022-08-19T13:55:48.244Z,100531.81
2022-08-19T14:00:50.841Z,100518.47
2022-08-19T14:05:53.391Z,100517.47
2022-08-19T14:10:56.239Z,100509.78
2022-08-19T14:15:59.115Z,100511.53
2022-08-19T14:21:02.247Z,100513.28
2022-08-19T14:26:10.033Z,100524.22
2022-08-19T14:31:17.638Z,100524.00
2022-08-19T14:36:21.354Z,100522.81
2022-08-19T14:41:24.790Z,100520.72
2022-08-19T14:46:29.636Z,100527.34
2022-08-19T14:51:32.281Z,100523.56
2022-08-19T14:56:34.767Z,100533.34
2022-08-19T15:01:37.531Z,100530.25
2022-08-19T15:06:40.355Z,100527.66
2022-08-19T15:11:49.936Z,100529.44
2022-08-19T15:16:52.290Z,100531.38
2022-08-19T15:21:55.763Z,100526.78
2022-08-19T15:26:58.188Z,100542.25
2022-08-19T15:32:00.527Z,100547.78
2022-08-19T15:37:05.692Z,100555.06
2022-08-19T15:42:08.563Z,100562.31
2022-08-19T15:47:11.771Z,100570.38
2022-08-19T15:52:14.174Z,100574.88
2022-08-19T15:57:22.679Z,100577.56
2022-08-19T16:02:46.287Z,100592.56
2022-08-19T16:07:48.832Z,100606.63
2022-08-19T16:12:51.291Z,100605.81
2022-08-19T16:17:56.763Z,100612.81
2022-08-19T16:23:00.190Z,100612.78
2022-08-19T16:28:07.499Z,100630.28
2022-08-19T16:33:10.944Z,100631.16
2022-08-19T16:38:13.422Z,100622.41
2022-08-19T16:43:15.766Z,100611.03
2022-08-19T16:48:18.118Z,100607.53
2022-08-19T16:53:23.109Z,100607.53
2022-08-19T16:58:29.134Z,100610.16
2022-08-19T17:03:36.467Z,100604.94
2022-08-19T17:08:39.396Z,100612.81
2022-08-19T17:13:41.769Z,100620.69
2022-08-19T17:18:45.745Z,100613.69
2022-08-19T17:23:48.844Z,100611.97
2022-08-19T17:28:53.098Z,100612.78
2022-08-19T17:33:58.235Z,100616.28
2022-08-19T17:39:02.252Z,100620.63
2022-08-19T17:44:05.252Z,100622.34
2022-08-19T17:49:07.701Z,100619.72
2022-08-19T17:54:14.461Z,100617.97
2022-08-19T18:04:19.823Z,100617.03
2022-08-19T18:09:41.769Z,100624.75
2022-08-19T18:14:45.213Z,100643.06
2022-08-19T18:19:47.809Z,100646.53
2022-08-19T18:24:50.371Z,100667.41
2022-08-19T18:29:56.681Z,100676.09
2022-08-19T18:35:01.067Z,100683.03
2022-08-19T18:40:23.851Z,100689.13
2022-08-19T18:45:44.635Z,100707.38
2022-08-19T18:50:47.073Z,100707.38
2022-08-19T18:55:55.387Z,100725.63
2022-08-19T19:00:58.758Z,100724.75
2022-08-19T19:06:01.494Z,100741.31
2022-08-19T19:11:05.978Z,100739.59
2022-08-19T19:16:11.620Z,100734.31
2022-08-19T19:21:14.084Z,100735.97
2022-08-19T19:26:18.435Z,100744.63
2022-08-19T19:31:23.605Z,100742.88
2022-08-19T19:36:26.133Z,100748.97
2022-08-19T19:41:29.664Z,100748.91
2022-08-19T19:46:32.750Z,100743.59
2022-08-19T19:51:38.569Z,100754.00
2022-08-19T19:56:43.549Z,100761.88
